Time;durP1;ratioP1;P1;durP2;ratioP2;P2;SDS_P1;SDS_P2;PMS_P1;PMS_P2;Temp;Humidity;BMP_temperature;BMP_pressure;BME280_temperature;BME280_humidity;BME280_pressure;Samples;Min_cycle;Max_cycle;Signal;HPM_P1;HPM_P2
2023/03/30 00:00:51;;;;;;;8.30;3.08;;;;;;;7.43;86.11;93018.28;5132640;27;20418;-79
2023/03/30 00:03:18;;;;;;;11.68;3.58;;;;;;;7.40;87.81;93020.59;5133191;27;20076;-79
2023/03/30 00:05:45;;;;;;;13.52;3.17;;;;;;;7.37;86.07;93021.09;5133485;27;20035;-79
2023/03/30 00:08:13;;;;;;;14.88;3.60;;;;;;;7.35;86.95;93034.38;5135185;27;20375;-79
2023/03/30 00:10:39;;;;;;;10.40;3.20;;;;;;;7.34;86.81;93037.22;5114877;27;20036;-79
2023/03/30 00:13:06;;;;;;;10.25;3.30;;;;;;;7.30;88.52;93029.91;5136161;27;20091;-78
2023/03/30 00:15:33;;;;;;;11.57;3.88;;;;;;;7.28;89.57;93029.38;5133262;27;20028;-79
2023/03/30 00:18:00;;;;;;;9.63;3.72;;;;;;;7.25;88.83;93032.50;5134642;27;20038;-78
2023/03/30 00:20:26;;;;;;;9.05;3.22;;;;;;;7.27;89.42;93040.03;5133935;27;20047;-78
2023/03/30 00:22:51;;;;;;;12.90;3.30;;;;;;;7.26;89.31;93036.66;5133803;27;20369;-79
2023/03/30 00:25:17;;;;;;;12.50;3.15;;;;;;;7.24;90.09;93028.31;5133178;27;20459;-78
2023/03/30 00:27:44;;;;;;;8.30;3.03;;;;;;;7.26;89.37;93028.06;5132964;27;20054;-79
2023/03/30 00:30:14;;;;;;;8.93;3.40;;;;;;;7.26;89.68;93028.06;5140004;27;20039;-79
2023/03/30 00:32:40;;;;;;;13.73;3.75;;;;;;;7.27;89.67;93029.63;5132597;27;20058;-79
2023/03/30 00:35:07;;;;;;;12.15;3.95;;;;;;;7.26;91.41;93026.25;5132269;27;20129;-78
2023/03/30 00:37:36;;;;;;;14.73;3.20;;;;;;;7.25;91.03;93022.06;5114832;27;20080;-79
2023/03/30 00:40:06;;;;;;;18.23;3.67;;;;;;;7.24;91.80;93023.09;5125528;27;20035;-79
2023/03/30 00:42:36;;;;;;;15.30;3.53;;;;;;;7.21;91.85;93018.41;5132093;27;20054;-79
2023/03/30 00:45:07;;;;;;;12.52;3.03;;;;;;;7.20;92.72;93016.81;5143993;27;20471;-77
2023/03/30 00:47:41;;;;;;;14.70;3.35;;;;;;;7.17;94.24;93014.72;5129690;27;20027;-79
2023/03/30 00:50:08;;;;;;;7.95;3.30;;;;;;;7.18;93.59;93010.31;5129579;27;20031;-79
2023/03/30 00:52:36;;;;;;;9.23;3.95;;;;;;;7.22;94.10;93019.19;5132090;27;20112;-79
2023/03/30 00:55:06;;;;;;;7.75;3.30;;;;;;;7.21;94.35;93015.81;5134036;27;20339;-79
2023/03/30 00:57:36;;;;;;;10.13;3.15;;;;;;;7.18;95.75;93011.09;5132500;27;20477;-79
2023/03/30 01:00:06;;;;;;;6.53;2.90;;;;;;;7.14;94.88;93001.41;5134269;27;20378;-79
2023/03/30 01:02:36;;;;;;;11.15;3.58;;;;;;;7.17;94.55;93008.75;5131686;27;20462;-78
2023/03/30 01:05:03;;;;;;;12.15;3.40;;;;;;;7.16;93.47;92997.56;5133232;27;20072;-79
2023/03/30 01:07:31;;;;;;;12.25;3.17;;;;;;;7.14;93.79;92999.63;5132369;27;20066;-79
2023/03/30 01:09:58;;;;;;;11.90;3.42;;;;;;;7.12;95.40;93001.69;5132961;27;20064;-79
2023/03/30 01:12:24;;;;;;;11.95;3.50;;;;;;;7.12;94.79;93001.69;5133254;27;20404;-79
2023/03/30 01:14:50;;;;;;;12.70;3.33;;;;;;;7.12;94.17;92999.09;5130452;27;20034;-79
2023/03/30 01:17:30;;;;;;;12.85;4.20;;;;;;;7.11;94.80;92989.69;5115017;28;20415;-79
2023/03/30 01:20:34;;;;;;;8.52;3.20;;;;;;;7.10;94.23;92990.75;5133480;27;20049;-78
2023/03/30 01:23:28;;;;;;;12.35;3.50;;;;;;;7.12;94.48;92995.72;5123785;27;20023;-79
2023/03/30 01:26:07;;;;;;;12.77;3.85;;;;;;;7.12;93.08;92996.47;5133218;27;20053;-78
2023/03/30 01:28:51;;;;;;;9.13;3.35;;;;;;;7.14;93.18;92985.78;5132957;27;20042;-79
2023/03/30 01:32:00;;;;;;;11.70;3.50;;;;;;;7.14;94.33;92989.22;5147729;27;20031;-79
2023/03/30 01:34:33;;;;;;;11.35;3.75;;;;;;;7.13;96.57;92985.03;5131975;27;20499;-79
2023/03/30 01:37:31;;;;;;;10.55;3.60;;;;;;;7.13;98.04;92992.84;5133260;27;20160;-79
2023/03/30 01:40:13;;;;;;;13.52;3.92;;;;;;;7.12;98.42;92993.09;5117992;27;20058;-79
2023/03/30 01:43:01;;;;;;;12.30;4.00;;;;;;;7.08;98.59;92990.97;5133032;27;20035;-77
2023/03/30 01:45:39;;;;;;;11.38;3.58;;;;;;;7.13;99.07;93005.84;5132885;27;20028;-79
2023/03/30 01:48:09;;;;;;;14.25;4.07;;;;;;;7.15;100.00;92989.97;5128478;27;20070;-78
2023/03/30 01:51:13;;;;;;;8.88;3.30;;;;;;;7.16;100.00;92994.94;5136206;27;20504;-79
2023/03/30 01:53:47;;;;;;;13.75;3.55;;;;;;;7.14;100.00;92984.00;5094092;28;20427;-79
2023/03/30 01:56:24;;;;;;;13.93;3.28;;;;;;;7.17;100.00;92986.09;5126826;27;20039;-79
2023/03/30 01:58:58;;;;;;;9.40;3.40;;;;;;;7.17;100.00;92986.09;5131769;27;20337;-79
2023/03/30 02:01:27;;;;;;;10.55;3.03;;;;;;;7.18;100.00;92974.66;5132614;27;20039;-78
2023/03/30 02:03:56;;;;;;;10.40;3.63;;;;;;;7.20;100.00;92977.75;5102735;27;20450;-78
2023/03/30 02:06:42;;;;;;;9.73;2.85;;;;;;;7.21;100.00;92981.94;5136081;27;20333;-79
2023/03/30 02:09:14;;;;;;;11.32;3.35;;;;;;;7.24;100.00;92983.25;5133867;27;20031;-79
2023/03/30 02:11:45;;;;;;;11.90;2.83;;;;;;;7.31;100.00;92978.59;5137726;27;20031;-79
2023/03/30 02:14:14;;;;;;;17.65;3.63;;;;;;;7.33;100.00;92980.97;5138346;27;20046;-78
2023/03/30 02:16:45;;;;;;;11.65;3.25;;;;;;;7.31;100.00;92983.81;5134507;27;20050;-78
2023/03/30 02:19:11;;;;;;;6.47;2.53;;;;;;;7.33;100.00;92980.97;5134960;27;20118;-78
2023/03/30 02:21:37;;;;;;;11.85;3.33;;;;;;;7.30;100.00;92977.81;5136131;27;20069;-78
2023/03/30 02:24:07;;;;;;;10.77;3.70;;;;;;;7.32;100.00;92974.16;5140288;27;20083;-78
2023/03/30 02:26:35;;;;;;;7.22;3.17;;;;;;;7.29;100.00;92973.66;5134915;27;20027;-78
2023/03/30 02:29:01;;;;;;;8.90;3.22;;;;;;;7.32;100.00;92971.56;5137519;27;20050;-77
2023/03/30 02:31:27;;;;;;;11.65;3.40;;;;;;;7.32;100.00;92974.16;5134695;27;20039;-78
2023/03/30 02:34:15;;;;;;;17.90;3.15;;;;;;;7.32;100.00;92972.38;5134244;27;20216;-78
2023/03/30 02:36:59;;;;;;;12.45;3.40;;;;;;;7.32;100.00;92967.16;5131904;27;20037;-78
2023/03/30 02:39:31;;;;;;;8.52;3.10;;;;;;;7.32;100.00;92963.75;5131443;27;20034;-78
2023/03/30 02:42:11;;;;;;;10.30;3.78;;;;;;;7.30;100.00;92962.19;5136439;27;20305;-78
2023/03/30 02:44:40;;;;;;;11.35;3.03;;;;;;;7.28;100.00;92969.47;5136674;27;20035;-78
2023/03/30 02:47:15;;;;;;;7.82;2.90;;;;;;;7.27;100.00;92967.94;5135149;27;20393;-78
2023/03/30 02:49:48;;;;;;;10.48;3.35;;;;;;;7.28;100.00;92977.28;5136226;27;20118;-78
2023/03/30 02:52:32;;;;;;;13.25;3.28;;;;;;;7.26;100.00;92966.34;5144430;27;20035;-78
2023/03/30 02:55:13;;;;;;;14.40;3.55;;;;;;;7.26;100.00;92961.13;5134872;27;20029;-78
2023/03/30 02:58:13;;;;;;;16.70;3.25;;;;;;;7.27;100.00;92967.94;5137430;27;20035;-78
2023/03/30 03:01:27;;;;;;;9.80;3.03;;;;;;;7.26;100.00;92963.75;5133168;27;20121;-78
2023/03/30 03:04:02;;;;;;;;;;;;;;;7.25;100.00;92956.16;5135942;27;20046;-78
2023/03/30 03:06:37;;;;;;;9.68;3.33;;;;;;;7.22;100.00;92951.47;5136383;27;19920;-78
2023/03/30 03:09:03;;;;;;;8.82;3.20;;;;;;;7.20;100.00;92938.72;5116909;27;20046;-78
2023/03/30 03:11:31;;;;;;;11.93;3.63;;;;;;;7.19;100.00;92933.78;5135464;27;20034;-78
2023/03/30 03:13:58;;;;;;;12.13;3.42;;;;;;;7.13;100.00;92932.94;5133964;27;20145;-79
2023/03/30 03:16:24;;;;;;;11.77;3.65;;;;;;;7.13;100.00;92938.16;5135032;27;20039;-78
2023/03/30 03:19:18;;;;;;;14.43;3.35;;;;;;;7.13;100.00;92934.78;5125890;27;20107;-78
2023/03/30 03:21:48;;;;;;;12.40;3.53;;;;;;;7.08;100.00;92932.94;5134580;27;20192;-77
2023/03/30 03:24:16;;;;;;;11.77;3.88;;;;;;;7.06;100.00;92929.81;5134461;27;20027;-78
2023/03/30 03:27:00;;;;;;;10.55;3.53;;;;;;;7.07;100.00;92937.38;5135981;27;20050;-77
2023/03/30 03:29:29;;;;;;;21.42;3.70;;;;;;;7.05;100.00;92942.03;5114121;27;20112;-78
2023/03/30 03:31:55;;;;;;;9.45;3.67;;;;;;;7.05;100.00;92944.63;5118041;27;20046;-78
2023/03/30 03:34:30;;;;;;;13.52;3.40;;;;;;;7.05;100.00;92943.88;5134964;27;20118;-78
2023/03/30 03:37:03;;;;;;;6.95;2.88;;;;;;;7.06;100.00;92948.03;5130532;27;20485;-78
2023/03/30 03:39:31;;;;;;;9.82;3.20;;;;;;;7.05;100.00;92946.47;5133742;27;20401;-78
2023/03/30 03:42:15;;;;;;;19.45;3.30;;;;;;;7.02;99.84;92944.34;5113694;27;20039;-78
2023/03/30 03:44:49;;;;;;;15.50;3.55;;;;;;;7.02;100.00;92947.72;5134461;27;20037;-78
2023/03/30 03:47:15;;;;;;;10.30;3.08;;;;;;;7.03;99.72;92951.13;5134346;27;20102;-78
2023/03/30 03:49:41;;;;;;;9.90;3.10;;;;;;;7.01;99.62;92948.00;5133857;27;20066;-78
2023/03/30 03:52:07;;;;;;;9.88;3.20;;;;;;;7.00;99.33;92942.03;5134398;27;20031;-78
2023/03/30 03:54:33;;;;;;;8.27;3.05;;;;;;;7.10;100.00;92941.28;5127184;27;20380;-77
2023/03/30 03:57:00;;;;;;;10.48;3.75;;;;;;;7.12;100.00;92933.22;5116649;27;20304;-78
2023/03/30 03:59:26;;;;;;;10.20;3.50;;;;;;;7.11;100.00;92931.63;5142548;27;20088;-78
2023/03/30 04:01:52;;;;;;;15.95;4.28;;;;;;;7.09;100.00;92926.69;5133273;27;20031;-78
2023/03/30 04:04:18;;;;;;;18.40;3.88;;;;;;;7.07;100.00;92923.56;5116991;27;20119;-78
2023/03/30 04:06:44;;;;;;;7.70;3.40;;;;;;;7.05;100.00;92923.03;5127674;27;20057;-77
2023/03/30 04:09:09;;;;;;;14.00;4.28;;;;;;;7.01;100.00;92927.19;5132323;27;20030;-77
2023/03/30 04:12:05;;;;;;;16.52;3.95;;;;;;;7.01;100.00;92927.19;5095827;27;20101;-78
2023/03/30 04:14:49;;;;;;;10.95;3.53;;;;;;;6.98;100.00;92928.47;5133610;27;20446;-78
2023/03/30 04:17:33;;;;;;;10.98;3.58;;;;;;;6.94;100.00;92922.19;5135099;27;20261;-78
2023/03/30 04:20:34;;;;;;;15.55;3.90;;;;;;;6.93;100.00;92925.81;5115250;27;20450;-78
2023/03/30 04:23:21;;;;;;;15.60;3.95;;;;;;;6.92;100.00;92928.69;5132551;27;20317;-77
2023/03/30 04:26:14;;;;;;;9.98;3.15;;;;;;;6.87;100.00;92925.03;5100577;27;20097;-78
2023/03/30 04:28:52;;;;;;;9.40;3.40;;;;;;;6.86;100.00;92933.84;5134033;27;20073;-78
2023/03/30 04:31:37;;;;;;;12.15;3.08;;;;;;;6.86;100.00;92927.88;5135136;27;20538;-78
2023/03/30 04:34:03;;;;;;;9.18;3.92;;;;;;;6.84;100.00;92922.91;5134469;27;20042;-78
2023/03/30 04:36:56;;;;;;;8.93;3.38;;;;;;;6.86;100.00;92925.25;5098721;27;20109;-78
2023/03/30 04:39:45;;;;;;;7.72;3.30;;;;;;;6.86;100.00;92922.66;5133016;27;20042;-78
2023/03/30 04:42:48;;;;;;;7.45;3.53;;;;;;;6.83;100.00;92926.56;5132815;27;20451;-77
2023/03/30 04:45:17;;;;;;;17.60;3.80;;;;;;;6.79;100.00;92909.88;5132447;27;20413;-79
2023/03/30 04:48:06;;;;;;;10.50;3.22;;;;;;;6.79;100.00;92914.31;5118537;27;20118;-78
2023/03/30 04:50:57;;;;;;;10.80;3.38;;;;;;;6.76;100.00;92910.38;5126264;27;20054;-78
2023/03/30 04:54:01;;;;;;;18.45;3.30;;;;;;;6.74;100.00;92911.69;5082674;28;20112;-78
2023/03/30 04:56:45;;;;;;;10.18;3.40;;;;;;;6.75;100.00;92914.00;5124987;27;20421;-78
2023/03/30 04:59:29;;;;;;;9.35;3.20;;;;;;;6.74;99.89;92925.47;5126097;27;20034;-78
2023/03/30 05:02:06;;;;;;;11.30;3.53;;;;;;;6.71;99.64;92919.97;5130889;27;20043;-79
2023/03/30 05:04:41;;;;;;;9.02;3.47;;;;;;;6.75;99.95;92929.63;5133722;27;20070;-82
2023/03/30 05:07:25;;;;;;;8.23;3.20;;;;;;;6.75;99.47;92928.84;5128842;27;20541;-80
2023/03/30 05:10:09;;;;;;;12.05;3.55;;;;;;;6.73;100.00;92934.28;5130092;27;20505;-78
2023/03/30 05:12:57;;;;;;;15.95;3.53;;;;;;;6.70;99.56;92942.59;5132342;27;20703;-79
2023/03/30 05:15:54;;;;;;;9.30;3.38;;;;;;;6.66;100.00;92941.53;5130471;27;20531;-79
2023/03/30 05:18:38;;;;;;;11.10;3.80;;;;;;;6.64;100.00;92938.41;5126929;27;20042;-80
2023/03/30 05:21:42;;;;;;;14.50;3.92;;;;;;;6.60;100.00;92939.94;5073987;28;20044;-78
2023/03/30 05:24:42;;;;;;;8.45;3.20;;;;;;;6.62;100.00;92940.47;5073529;28;20140;-78
2023/03/30 05:27:48;;;;;;;11.50;3.50;;;;;;;6.60;100.00;92943.34;5050661;28;20113;-78
2023/03/30 05:30:26;;;;;;;7.10;3.30;;;;;;;6.62;100.00;92945.66;5037192;28;20048;-77
2023/03/30 05:33:10;;;;;;;10.25;3.47;;;;;;;6.64;100.00;92946.19;5098944;27;20408;-77
2023/03/30 05:35:56;;;;;;;12.90;3.55;;;;;;;6.67;100.00;92950.91;5125063;27;20047;-77
2023/03/30 05:38:35;;;;;;;12.75;3.38;;;;;;;6.71;100.00;92952.00;5115037;27;20062;-77
2023/03/30 05:41:33;;;;;;;11.75;3.70;;;;;;;6.70;100.00;92953.00;5094114;27;20047;-77
2023/03/30 05:44:13;;;;;;;19.23;7.05;;;;;;;6.74;100.00;92954.09;5115204;28;20042;-76
2023/03/30 05:46:57;;;;;;;14.27;4.43;;;;;;;6.75;100.00;92953.03;5130040;27;20061;-76
2023/03/30 05:49:30;;;;;;;14.10;4.10;;;;;;;6.77;100.00;92952.78;5118881;28;20114;-76
2023/03/30 05:52:06;;;;;;;14.10;4.13;;;;;;;6.81;100.00;92961.69;5114849;27;20472;-76
2023/03/30 05:54:50;;;;;;;8.13;3.45;;;;;;;6.84;100.00;92963.75;5122304;27;20038;-77
2023/03/30 05:57:32;;;;;;;14.10;4.20;;;;;;;6.90;100.00;92947.16;5130975;27;20442;-76
2023/03/30 06:00:15;;;;;;;12.25;3.90;;;;;;;6.97;100.00;92952.13;5130273;28;20067;-76
2023/03/30 06:02:53;;;;;;;10.40;3.92;;;;;;;7.03;100.00;92956.34;5129445;28;20065;-77
2023/03/30 06:05:21;;;;;;;11.15;3.90;;;;;;;7.08;100.00;92953.75;5130901;27;20106;-77
2023/03/30 06:07:48;;;;;;;11.02;3.60;;;;;;;7.16;100.00;92949.88;5131150;27;20156;-76
2023/03/30 06:10:14;;;;;;;13.80;3.50;;;;;;;7.24;100.00;92944.97;5129414;27;20061;-77
2023/03/30 06:12:42;;;;;;;11.57;3.10;;;;;;;7.31;100.00;92965.59;5127499;27;20027;-77
2023/03/30 06:15:19;;;;;;;8.77;3.60;;;;;;;7.38;100.00;92965.34;5099114;28;20038;-76
2023/03/30 06:17:51;;;;;;;11.45;3.63;;;;;;;7.42;100.00;92956.00;5129943;28;20080;-76
2023/03/30 06:20:20;;;;;;;10.55;3.30;;;;;;;7.49;100.00;92956.53;5135480;27;20035;-76
2023/03/30 06:22:50;;;;;;;10.32;3.58;;;;;;;7.53;100.00;92960.22;5130484;28;20023;-76
2023/03/30 06:25:19;;;;;;;11.27;3.08;;;;;;;7.61;100.00;92958.91;5122144;27;20434;-78
2023/03/30 06:27:46;;;;;;;18.08;3.35;;;;;;;7.66;100.00;92959.72;5130510;28;20135;-77
2023/03/30 06:30:14;;;;;;;9.50;3.22;;;;;;;7.71;100.00;92964.19;5113178;28;20097;-77
2023/03/30 06:32:41;;;;;;;12.77;3.63;;;;;;;7.77;100.00;92964.97;5130102;27;20035;-76
2023/03/30 06:35:07;;;;;;;10.27;3.60;;;;;;;7.84;100.00;92955.88;5131511;27;20043;-77
2023/03/30 06:37:36;;;;;;;18.38;3.55;;;;;;;7.90;100.00;92949.66;5134468;27;20149;-77
2023/03/30 06:40:07;;;;;;;13.00;3.47;;;;;;;7.98;100.00;92948.34;5134186;27;20511;-77
2023/03/30 06:42:33;;;;;;;10.40;3.78;;;;;;;7.99;100.00;92957.72;5134402;27;20038;-77
2023/03/30 06:45:15;;;;;;;15.90;3.47;;;;;;;8.07;100.00;92953.84;5119900;27;20035;-77
2023/03/30 06:47:42;;;;;;;9.18;3.30;;;;;;;8.12;100.00;92952.00;5135354;27;20511;-77
2023/03/30 06:50:09;;;;;;;10.32;3.20;;;;;;;8.20;100.00;92947.34;5114571;28;20417;-77
2023/03/30 06:52:53;;;;;;;11.95;3.83;;;;;;;8.26;100.00;92954.09;5114670;28;20040;-77
2023/03/30 06:55:20;;;;;;;11.40;3.28;;;;;;;8.44;100.00;92953.63;5097786;28;20039;-77
2023/03/30 06:57:46;;;;;;;17.98;3.33;;;;;;;8.54;100.00;92958.84;5097446;28;20051;-77
2023/03/30 07:00:14;;;;;;;7.63;2.70;;;;;;;8.47;100.00;92958.34;5129825;27;20039;-77
2023/03/30 07:02:43;;;;;;;9.82;3.08;;;;;;;8.51;100.00;92963.78;5137590;27;20035;-78
2023/03/30 07:05:14;;;;;;;8.73;3.53;;;;;;;8.44;100.00;92953.63;5137034;27;20043;-78
2023/03/30 07:08:13;;;;;;;14.88;3.28;;;;;;;8.42;100.00;92953.13;5137192;27;20054;-77
2023/03/30 07:10:48;;;;;;;10.82;3.88;;;;;;;8.42;100.00;92953.13;5125018;27;20050;-77
2023/03/30 07:13:27;;;;;;;11.60;3.75;;;;;;;8.57;100.00;92956.75;5135808;27;20031;-78
2023/03/30 07:16:02;;;;;;;7.25;3.10;;;;;;;8.58;100.00;92958.31;5138252;27;20043;-78
2023/03/30 07:19:20;;;;;;;12.80;3.72;;;;;;;8.67;100.00;92956.75;5120335;27;20101;-78
2023/03/30 07:22:23;;;;;;;10.18;3.70;;;;;;;8.80;100.00;92939.78;5136597;27;20377;-78
2023/03/30 07:25:07;;;;;;;8.98;3.00;;;;;;;8.77;100.00;92945.53;5136402;27;20480;-78
2023/03/30 07:27:37;;;;;;;15.00;3.53;;;;;;;8.83;100.00;92942.66;5121699;27;20055;-78
2023/03/30 07:30:06;;;;;;;8.02;2.70;;;;;;;8.99;100.00;92953.84;5102213;27;20047;-78
2023/03/30 07:33:22;;;;;;;14.75;3.92;;;;;;;9.10;100.00;92955.38;5136282;27;20043;-78
2023/03/30 07:36:09;;;;;;;12.27;3.50;;;;;;;9.42;100.00;92948.25;5135757;27;20434;-77
2023/03/30 07:38:51;;;;;;;13.00;3.42;;;;;;;9.35;100.00;92946.69;5119112;27;20035;-78
2023/03/30 07:45:41;;;;;;;17.90;3.15;;;;;;;9.45;100.00;92955.53;5136416;27;20035;-78
2023/03/30 07:52:06;;;;;;;23.40;2.78;;;;;;;9.40;99.06;92947.72;5137764;27;20060;-79
2023/03/30 07:55:02;;;;;;;8.55;2.90;;;;;;;9.33;100.00;92959.25;5136998;27;20504;-78
2023/03/30 07:58:01;;;;;;;11.68;3.05;;;;;;;9.43;99.85;92962.88;5115457;28;20081;-78
2023/03/30 08:00:32;;;;;;;13.50;3.75;;;;;;;9.21;100.00;92964.00;5119322;27;20382;-78
2023/03/30 08:03:39;;;;;;;10.00;3.28;;;;;;;9.13;100.00;92954.84;5137779;27;20446;-78
2023/03/30 08:06:06;;;;;;;6.13;2.33;;;;;;;9.33;100.00;92951.41;5136181;27;20027;-78
2023/03/30 08:08:56;;;;;;;12.13;3.58;;;;;;;9.35;100.00;92951.91;5136126;27;20396;-78
2023/03/30 08:11:41;;;;;;;14.60;3.70;;;;;;;9.31;99.43;92961.34;5115871;28;20126;-77
2023/03/30 08:14:22;;;;;;;14.43;3.30;;;;;;;9.06;100.00;92967.41;5133254;27;20068;-77
2023/03/30 08:16:50;;;;;;;10.18;3.58;;;;;;;9.03;100.00;92969.75;5136307;27;20046;-78
2023/03/30 08:19:19;;;;;;;10.63;3.50;;;;;;;9.13;100.00;92965.28;5136321;27;20076;-78
2023/03/30 08:21:45;;;;;;;10.82;3.60;;;;;;;9.11;100.00;92950.94;5135294;27;20130;-78
2023/03/30 08:24:24;;;;;;;9.32;3.78;;;;;;;9.21;100.00;92966.59;5136586;27;20081;-78
2023/03/30 08:26:50;;;;;;;12.95;3.63;;;;;;;9.16;100.00;92972.63;5139592;27;20034;-77
2023/03/30 08:29:17;;;;;;;6.40;2.78;;;;;;;9.21;100.00;92976.25;5135478;27;20043;-78
2023/03/30 08:32:02;;;;;;;7.18;3.38;;;;;;;9.30;100.00;92966.81;5136371;27;20493;-78
2023/03/30 08:34:33;;;;;;;9.52;3.10;;;;;;;9.31;100.00;92961.34;5135585;27;20039;-77
2023/03/30 08:36:59;;;;;;;7.68;2.78;;;;;;;9.31;100.00;92968.41;5117279;27;20047;-78
2023/03/30 08:39:31;;;;;;;16.45;3.70;;;;;;;9.08;100.00;92956.72;5135988;27;20027;-77
2023/03/30 08:42:29;;;;;;;16.75;3.40;;;;;;;9.18;100.00;92975.72;5117818;27;20031;-78
2023/03/30 08:45:07;;;;;;;11.40;3.97;;;;;;;9.31;100.00;92973.63;5135610;27;20041;-78
2023/03/30 08:47:42;;;;;;;12.45;4.20;;;;;;;9.22;100.00;92983.81;5136282;27;20031;-78
2023/03/30 08:50:24;;;;;;;8.80;3.63;;;;;;;9.38;100.00;92976.72;5137047;27;20031;-78
2023/03/30 08:53:10;;;;;;;11.25;3.83;;;;;;;9.18;100.00;92969.72;5135731;27;20041;-78
2023/03/30 08:55:42;;;;;;;8.45;3.53;;;;;;;9.29;100.00;92962.66;5137206;27;20492;-78
2023/03/30 08:58:32;;;;;;;14.10;4.07;;;;;;;9.18;100.00;92956.66;5136257;27;20030;-78
2023/03/30 09:01:40;;;;;;;11.27;3.63;;;;;;;9.02;100.00;92958.53;5134234;27;20038;-78
2023/03/30 09:05:14;;;;;;;9.00;3.80;;;;;;;9.05;100.00;92957.22;5115990;28;20045;-78
2023/03/30 09:07:54;;;;;;;13.25;3.78;;;;;;;9.03;100.00;92961.91;5041701;28;20498;-77
2023/03/30 09:10:21;;;;;;;14.02;3.80;;;;;;;9.01;100.00;92956.19;5114053;28;20027;-78
2023/03/30 09:12:56;;;;;;;11.43;3.20;;;;;;;9.20;100.00;92949.34;5130201;27;20102;-77
2023/03/30 09:16:18;;;;;;;7.53;3.28;;;;;;;9.05;100.00;92946.78;5133389;27;20031;-78
2023/03/30 09:18:49;;;;;;;12.85;4.63;;;;;;;9.16;100.00;92943.88;5090645;28;20019;-77
2023/03/30 09:21:17;;;;;;;10.55;3.67;;;;;;;9.25;100.00;92962.38;5090188;28;20032;-78
2023/03/30 09:23:43;;;;;;;15.00;3.90;;;;;;;9.40;100.00;92958.97;5115154;27;20508;-77
2023/03/30 09:26:27;;;;;;;13.18;3.90;;;;;;;9.24;100.00;92953.00;5132666;27;20127;-77
2023/03/30 09:29:05;;;;;;;14.45;4.22;;;;;;;9.09;100.00;92942.59;5137131;27;20393;-77
2023/03/30 09:31:43;;;;;;;14.65;4.50;;;;;;;9.06;100.00;92943.13;5132465;28;20031;-77
2023/03/30 09:34:27;;;;;;;12.85;4.70;;;;;;;9.08;100.00;92943.66;5118222;28;20092;-77
2023/03/30 09:37:00;;;;;;;14.60;3.70;;;;;;;9.33;100.00;92948.78;5132199;28;20038;-77
2023/03/30 09:39:27;;;;;;;;;;;;;;;9.15;100.00;92942.31;5134003;27;20636;-77
2023/03/30 09:42:07;;;;;;;10.30;3.50;;;;;;;9.07;100.00;92947.28;5122880;27;19899;-77
2023/03/30 09:44:58;;;;;;;10.43;3.90;;;;;;;8.86;100.00;92947.34;5132944;27;20027;-77
2023/03/30 09:47:30;;;;;;;11.75;4.57;;;;;;;8.90;100.00;92935.31;5133246;28;20027;-77
2023/03/30 09:50:02;;;;;;;7.88;3.22;;;;;;;9.00;100.00;92939.72;5133533;27;20035;-77
2023/03/30 09:52:35;;;;;;;13.95;4.30;;;;;;;8.91;100.00;92936.88;5133109;28;20117;-77
2023/03/30 09:55:37;;;;;;;14.88;4.38;;;;;;;8.85;100.00;92916.25;5133483;27;20037;-77
2023/03/30 09:58:17;;;;;;;9.90;4.18;;;;;;;9.02;100.00;92913.38;5132070;28;20118;-77
2023/03/30 10:01:03;;;;;;;6.05;2.72;;;;;;;8.99;100.00;92906.84;5133239;27;20122;-77
2023/03/30 10:03:29;;;;;;;8.15;2.72;;;;;;;9.02;100.00;92901.09;5136226;28;20059;-77
2023/03/30 10:06:17;;;;;;;9.68;4.28;;;;;;;8.94;100.00;92905.03;5133865;28;20500;-76
2023/03/30 10:08:49;;;;;;;6.55;3.10;;;;;;;9.06;100.00;92903.97;5132100;28;20031;-77
2023/03/30 10:11:36;;;;;;;7.95;3.88;;;;;;;9.01;100.00;92890.91;5127808;27;20028;-77
2023/03/30 10:14:02;;;;;;;13.15;4.20;;;;;;;9.10;100.00;92897.94;5116857;28;20454;-78
2023/03/30 10:16:43;;;;;;;9.15;4.28;;;;;;;9.00;100.00;92905.78;5117812;28;20028;-78
2023/03/30 10:19:17;;;;;;;13.95;5.13;;;;;;;9.16;100.00;92920.38;5100020;28;20534;-77
2023/03/30 10:21:56;;;;;;;14.90;4.80;;;;;;;9.09;100.00;92926.91;5117768;28;20051;-77
2023/03/30 10:24:28;;;;;;;19.58;4.75;;;;;;;9.13;100.00;92931.34;5116127;28;20041;-78
2023/03/30 10:27:12;;;;;;;11.90;4.60;;;;;;;9.00;100.00;92934.50;5104642;27;20035;-77
2023/03/30 10:29:43;;;;;;;16.85;5.05;;;;;;;8.95;100.00;92935.31;5135974;27;20036;-78
2023/03/30 10:32:18;;;;;;;10.10;4.50;;;;;;;8.79;100.00;92940.84;5132882;27;20069;-77
2023/03/30 10:34:49;;;;;;;17.00;3.75;;;;;;;9.04;100.00;92940.78;5114592;27;20032;-77
2023/03/30 10:37:21;;;;;;;9.35;4.13;;;;;;;9.00;100.00;92936.34;5131024;27;20042;-77
2023/03/30 10:39:50;;;;;;;10.98;4.22;;;;;;;8.91;100.00;92936.88;5114911;28;20392;-77
2023/03/30 10:42:22;;;;;;;8.85;4.25;;;;;;;8.94;100.00;92928.53;5134339;27;20015;-77
2023/03/30 10:44:54;;;;;;;10.32;4.60;;;;;;;8.81;100.00;92923.84;5134882;27;20042;-76
2023/03/30 10:47:35;;;;;;;7.65;3.17;;;;;;;8.84;100.00;92918.09;5136151;27;20034;-77
2023/03/30 10:50:40;;;;;;;14.02;4.47;;;;;;;8.89;100.00;92912.09;5134402;27;20070;-77
2023/03/30 10:53:32;;;;;;;12.80;5.13;;;;;;;8.79;100.00;92910.28;5135162;27;20118;-77
2023/03/30 10:56:18;;;;;;;6.82;3.95;;;;;;;8.68;100.00;92912.13;5134794;27;20516;-77
2023/03/30 10:59:02;;;;;;;10.77;4.45;;;;;;;8.59;100.00;92907.72;5125354;27;20107;-77
2023/03/30 11:01:31;;;;;;;10.82;4.90;;;;;;;8.53;100.00;92907.72;5135663;27;20023;-77
2023/03/30 11:04:06;;;;;;;11.85;5.22;;;;;;;8.45;100.00;92912.69;5136403;27;20023;-78
2023/03/30 11:06:39;;;;;;;10.15;4.63;;;;;;;8.68;100.00;92904.28;5135288;27;20027;-77
2023/03/30 11:09:13;;;;;;;13.52;4.35;;;;;;;8.70;100.00;92904.81;5135018;27;20058;-78
2023/03/30 11:11:44;;;;;;;10.50;4.63;;;;;;;8.47;100.00;92903.53;5134992;27;20031;-78
2023/03/30 11:14:20;;;;;;;8.48;4.97;;;;;;;8.43;100.00;92899.09;5135278;27;20043;-77
2023/03/30 11:16:51;;;;;;;11.68;5.82;;;;;;;8.35;100.00;92902.97;5136233;27;20229;-78
2023/03/30 11:19:24;;;;;;;8.33;4.70;;;;;;;8.52;100.00;92898.31;5136523;27;20028;-77
2023/03/30 11:22:05;;;;;;;10.75;5.05;;;;;;;8.47;100.00;92908.75;5134683;27;20070;-77
2023/03/30 11:24:33;;;;;;;12.43;5.72;;;;;;;8.44;100.00;92904.03;5135901;27;20026;-77
2023/03/30 11:27:09;;;;;;;9.65;4.82;;;;;;;8.48;100.00;92906.94;5136085;27;20053;-77
2023/03/30 11:29:47;;;;;;;15.60;4.70;;;;;;;8.50;100.00;92917.88;5135129;27;20079;-77
2023/03/30 11:32:31;;;;;;;9.50;5.30;;;;;;;8.32;100.00;92919.16;5134575;27;20106;-77
2023/03/30 11:35:24;;;;;;;9.65;5.10;;;;;;;8.34;100.00;92920.47;5135831;27;20070;-77
2023/03/30 11:38:00;;;;;;;6.15;4.13;;;;;;;8.30;100.00;92916.81;5135717;27;20035;-77
2023/03/30 11:40:43;;;;;;;9.68;3.97;;;;;;;8.32;100.00;92925.16;5133888;27;20750;-78
2023/03/30 11:43:11;;;;;;;13.68;4.22;;;;;;;8.33;100.00;92931.16;5135243;27;20118;-78
2023/03/30 11:45:50;;;;;;;7.82;3.85;;;;;;;8.26;100.00;92935.84;5133958;27;20045;-77
2023/03/30 11:48:57;;;;;;;12.30;4.30;;;;;;;8.20;100.00;92924.66;5135009;27;20065;-77
2023/03/30 11:51:59;;;;;;;9.38;4.18;;;;;;;8.31;100.00;92921.00;5072221;28;20039;-79
2023/03/30 11:54:53;;;;;;;10.75;4.22;;;;;;;8.27;100.00;92921.78;5101521;27;20416;-77
2023/03/30 11:57:47;;;;;;;15.15;4.55;;;;;;;8.43;100.00;92918.16;5134379;27;20043;-77
2023/03/30 12:00:31;;;;;;;27.40;4.85;;;;;;;8.33;100.00;92915.50;5134535;27;20030;-77
2023/03/30 12:03:35;;;;;;;8.70;4.25;;;;;;;8.28;100.00;92908.47;5133721;27;20127;-77
2023/03/30 12:06:32;;;;;;;178.15;6.80;;;;;;;8.26;100.00;92899.34;5134324;27;20027;-76
2023/03/30 12:09:20;;;;;;;85.45;4.95;;;;;;;8.30;100.00;92900.38;5134398;27;20038;-78
2023/03/30 12:12:10;;;;;;;368.33;10.73;;;;;;;8.18;100.00;92899.88;5134044;27;20039;-77
2023/03/30 12:15:00;;;;;;;63.10;4.85;;;;;;;8.20;100.00;92892.56;5134623;27;20039;-77
2023/03/30 12:17:33;;;;;;;34.42;3.85;;;;;;;8.09;100.00;92900.38;5134376;27;20038;-77
2023/03/30 12:20:06;;;;;;;297.52;9.70;;;;;;;8.18;100.00;92892.06;5133310;27;20035;-77
2023/03/30 12:23:08;;;;;;;359.92;9.75;;;;;;;8.20;100.00;92892.56;5134520;27;20533;-76
2023/03/30 12:26:11;;;;;;;512.33;13.85;;;;;;;8.18;100.00;92886.84;5132306;27;20038;-77
2023/03/30 12:28:55;;;;;;;235.32;7.65;;;;;;;8.21;100.00;92879.25;5135031;27;20115;-78